Time;durP1;ratioP1;P1;durP2;ratioP2;P2;SDS_P1;SDS_P2;PMS_P1;PMS_P2;Temp;Humidity;BMP_temperature;BMP_pressure;BME280_temperature;BME280_humidity;BME280_pressure;Samples;Min_cycle;Max_cycle;Signal;HPM_P1;HPM_P2
2022/09/07 00:00:26;;;;;;;;;;;;;;;;;;21087237;28;19923;-61
2022/09/07 00:10:28;;;;;;;;;;;;;;;;;;21087099;28;20303;-61
2022/09/07 00:20:30;;;;;;;;;;;;;;;;;;21085429;28;19924;-63
2022/09/07 00:30:32;;;;;;;;;;;;;;;;;;21084267;28;19924;-62
2022/09/07 00:40:34;;;;;;;;;;;;;;;;;;21081999;28;19971;-62
2022/09/07 00:50:36;;;;;;;;;;;;;;;;;;21083322;28;19924;-62
2022/09/07 01:00:37;;;;;;;;;;;;;;;;;;21082299;28;19928;-62
2022/09/07 01:10:39;;;;;;;;;;;;;;;;;;21082881;28;20433;-62
2022/09/07 01:20:42;;;;;;;;;;;;;;;;;;21081957;28;19928;-62
2022/09/07 01:30:46;;;;;;;;;;;;;;;;;;21081516;28;20363;-61
2022/09/07 01:40:50;;;;;;;;;;;;;;;;;;21080513;28;20028;-63
2022/09/07 01:50:52;;;;;;;;;;;;;;;;;;21087250;28;20019;-61
2022/09/07 02:00:54;;;;;;;;;;;;;;;;;;21097326;28;19950;-62
2022/09/07 02:11:01;;;;;;;;;;;;;;;;;;21095776;28;19928;-62
2022/09/07 02:21:07;;;;;;;;;;;;;;;;;;21094672;28;19932;-61
2022/09/07 02:31:10;;;;;;;;;;;;;;;;;;21094335;28;19924;-61
2022/09/07 02:41:13;;;;;;;;;;;;;;;;;;21093242;28;19924;-61
2022/09/07 02:51:17;;;;;;;;;;;;;;;;;;21094307;28;19946;-62
2022/09/07 03:01:19;;;;;;;;;;;;;;;;;;21091675;28;19932;-61
2022/09/07 03:11:21;;;;;;;;;;;;;;;;;;21091425;28;19930;-62
2022/09/07 03:21:24;;;;;;;;;;;;;;;;;;21090825;28;19924;-62
2022/09/07 03:31:27;;;;;;;;;;;;;;;;;;21089532;28;20329;-62
2022/09/07 03:41:29;;;;;;;;;;;;;;;;;;21087754;28;19928;-62
2022/09/07 03:51:31;;;;;;;;;;;;;;;;;;21087737;28;19931;-62
2022/09/07 04:01:33;;;;;;;;;;;;;;;;;;21085597;28;20304;-62
2022/09/07 04:11:35;;;;;;;;;;;;;;;;;;21084600;28;20300;-61
2022/09/07 04:21:38;;;;;;;;;;;;;;;;;;21086084;28;20422;-61
2022/09/07 04:31:40;;;;;;;;;;;;;;;;;;21084307;28;19931;-63
2022/09/07 04:41:42;;;;;;;;;;;;;;;;;;21083623;28;20368;-61
2022/09/07 04:51:45;;;;;;;;;;;;;;;;;;21082807;28;19924;-61
2022/09/07 05:01:47;;;;;;;;;;;;;;;;;;21082920;28;20388;-62
2022/09/07 05:11:48;;;;;;;;;;;;;;;;;;21081371;28;19969;-63
2022/09/07 05:21:50;;;;;;;;;;;;;;;;;;21081216;28;20379;-62
2022/09/07 05:31:53;;;;;;;;;;;;;;;;;;21081064;28;20486;-63
2022/09/07 05:41:55;;;;;;;;;;;;;;;;;;21080483;28;20373;-62
2022/09/07 05:51:56;;;;;;;;;;;;;;;;;;21081006;28;20296;-63
2022/09/07 06:01:58;;;;;;;;;;;;;;;;;;21079711;28;20011;-63
2022/09/07 06:12:04;;;;;;;;;;;;;;;;;;21080264;28;19928;-63
2022/09/07 06:22:06;;;;;;;;;;;;;;;;;;21080163;28;20287;-62
2022/09/07 06:32:08;;;;;;;;;;;;;;;;;;21078700;28;20029;-63
2022/09/07 06:42:09;;;;;;;;;;;;;;;;;;21092561;28;20348;-63
2022/09/07 06:52:11;;;;;;;;;;;;;;;;;;21093126;28;19924;-61
2022/09/07 07:02:13;;;;;;;;;;;;;;;;;;21093161;28;19968;-62
2022/09/07 07:12:15;;;;;;;;;;;;;;;;;;21092054;28;20014;-62
2022/09/07 07:22:17;;;;;;;;;;;;;;;;;;21089924;28;19985;-62
2022/09/07 07:32:19;;;;;;;;;;;;;;;;;;21089696;28;19924;-62
2022/09/07 07:42:20;;;;;;;;;;;;;;;;;;21088631;28;19928;-63
2022/09/07 07:52:23;;;;;;;;;;;;;;;;;;21089049;28;20007;-63
2022/09/07 08:02:24;;;;;;;;;;;;;;;;;;21087722;28;19924;-63
2022/09/07 08:12:26;;;;;;;;;;;;;;;;;;21086590;28;19924;-63
2022/09/07 08:22:28;;;;;;;;;;;;;;;;;;21085454;28;20318;-63
2022/09/07 08:32:30;;;;;;;;;;;;;;;;;;21085014;28;19928;-62
2022/09/07 08:42:32;;;;;;;;;;;;;;;;;;21082121;28;19924;-65
2022/09/07 08:52:33;;;;;;;;;;;;;;;;;;21081082;28;19931;-67
2022/09/07 09:02:35;;;;;;;;;;;;;;;;;;21079069;28;20042;-63
2022/09/07 09:12:39;;;;;;;;;;;;;;;;;;21079734;28;19928;-61
2022/09/07 09:22:42;;;;;;;;;;;;;;;;;;21079209;28;21313;-68
2022/09/07 09:32:44;;;;;;;;;;;;;;;;;;21079973;28;20292;-60
2022/09/07 09:42:47;;;;;;;;;;;;;;;;;;21078542;28;19924;-63
2022/09/07 09:52:48;;;;;;;;;;;;;;;;;;21077981;28;20090;-63
2022/09/07 10:02:50;;;;;;;;;;;;;;;;;;21035524;28;20385;-62
2022/09/07 10:12:53;;;;;;;;;;;;;;;;;;21002685;28;19924;-62
2022/09/07 10:22:55;;;;;;;;;;;;;;;;;;21010468;28;19925;-62
2022/09/07 10:32:57;;;;;;;;;;;;;;;;;;21012538;28;19931;-64
2022/09/07 10:42:59;;;;;;;;;;;;;;;;;;21007950;28;19925;-64
2022/09/07 10:53:02;;;;;;;;;;;;;;;;;;21042659;28;19924;-63
2022/09/07 11:03:04;;;;;;;;;;;;;;;;;;21091510;28;19931;-59
2022/09/07 11:13:05;;;;;;;;;;;;;;;;;;21088495;28;19931;-59
2022/09/07 11:23:07;;;;;;;;;;;;;;;;;;21088891;28;19972;-61
2022/09/07 11:33:09;;;;;;;;;;;;;;;;;;21087716;28;19924;-59
2022/09/07 11:43:11;;;;;;;;;;;;;;;;;;21073238;28;19924;-58
2022/09/07 11:53:13;;;;;;;;;;;;;;;;;;21042874;28;19924;-59
2022/09/07 12:03:17;;;;;;;;;;;;;;;;;;21002653;28;19925;-61
2022/09/07 12:13:19;;;;;;;;;;;;;;;;;;21002020;28;20331;-61
2022/09/07 12:23:21;;;;;;;;;;;;;;;;;;21001685;28;19924;-60
2022/09/07 12:33:23;;;;;;;;;;;;;;;;;;20998763;28;20019;-61
2022/09/07 12:43:25;;;;;;;;;;;;;;;;;;20999459;28;19925;-60
2022/09/07 12:53:28;;;;;;;;;;;;;;;;;;20998882;28;19924;-64
2022/09/07 13:03:29;;;;;;;;;;;;;;;;;;20998837;28;19924;-60
2022/09/07 13:13:31;;;;;;;;;;;;;;;;;;20997771;28;19925;-61
2022/09/07 13:23:33;;;;;;;;;;;;;;;;;;20996873;28;19924;-61
2022/09/07 13:33:36;;;;;;;;;;;;;;;;;;20996670;28;20340;-61
2022/09/07 13:43:39;;;;;;;;;;;;;;;;;;21000670;28;19925;-61
2022/09/07 13:53:41;;;;;;;;;;;;;;;;;;21023060;28;20049;-62
2022/09/07 14:03:43;;;;;;;;;;;;;;;;;;21022181;28;19924;-61
2022/09/07 14:13:45;;;;;;;;;;;;;;;;;;21021865;28;19950;-61
2022/09/07 14:23:47;;;;;;;;;;;;;;;;;;21022958;28;19947;-61
2022/09/07 14:33:49;;;;;;;;;;;;;;;;;;21021737;28;19978;-60
2022/09/07 14:43:51;;;;;;;;;;;;;;;;;;21020733;28;19975;-60
2022/09/07 14:53:53;;;;;;;;;;;;;;;;;;21019711;28;20299;-61
2022/09/07 15:03:54;;;;;;;;;;;;;;;;;;21007321;28;19925;-62
2022/09/07 15:13:57;;;;;;;;;;;;;;;;;;21006675;28;19924;-62
2022/09/07 15:23:58;;;;;;;;;;;;;;;;;;21006392;28;20303;-61
2022/09/07 15:34:01;;;;;;;;;;;;;;;;;;21005058;28;19929;-62
2022/09/07 15:44:03;;;;;;;;;;;;;;;;;;21059988;28;20384;-62
2022/09/07 15:54:05;;;;;;;;;;;;;;;;;;21085751;28;19947;-60
2022/09/07 16:04:07;;;;;;;;;;;;;;;;;;21083586;28;19924;-62
2022/09/07 16:14:11;;;;;;;;;;;;;;;;;;21083227;28;20376;-61
2022/09/07 16:24:13;;;;;;;;;;;;;;;;;;21085149;28;19986;-60
2022/09/07 16:34:19;;;;;;;;;;;;;;;;;;21084380;28;20015;-61
2022/09/07 16:44:21;;;;;;;;;;;;;;;;;;21080135;28;19925;-60
2022/09/07 16:54:23;;;;;;;;;;;;;;;;;;21080127;28;19924;-66
2022/09/07 17:04:25;;;;;;;;;;;;;;;;;;21079444;28;20351;-70
2022/09/07 17:14:27;;;;;;;;;;;;;;;;;;21076533;28;19954;-68
2022/09/07 17:24:29;;;;;;;;;;;;;;;;;;21077230;28;19924;-67
2022/09/07 17:34:31;;;;;;;;;;;;;;;;;;21076875;28;20416;-68
2022/09/07 17:44:33;;;;;;;;;;;;;;;;;;21076231;28;20356;-64
2022/09/07 17:54:35;;;;;;;;;;;;;;;;;;21078042;28;20279;-63
2022/09/07 18:04:37;;;;;;;;;;;;;;;;;;21078897;28;19970;-61
2022/09/07 18:14:38;;;;;;;;;;;;;;;;;;21078046;28;19931;-62
2022/09/07 18:24:41;;;;;;;;;;;;;;;;;;21080213;28;19928;-60
2022/09/07 18:34:42;;;;;;;;;;;;;;;;;;21092022;28;19924;-61
2022/09/07 18:44:44;;;;;;;;;;;;;;;;;;21096267;28;20343;-61
2022/09/07 18:54:46;;;;;;;;;;;;;;;;;;21093820;28;20156;-60
2022/09/07 19:04:48;;;;;;;;;;;;;;;;;;21090853;28;20038;-60
2022/09/07 19:14:50;;;;;;;;;;;;;;;;;;21090061;28;20015;-59
2022/09/07 19:24:52;;;;;;;;;;;;;;;;;;21090926;28;19924;-61
2022/09/07 19:34:54;;;;;;;;;;;;;;;;;;21090521;28;20438;-60
2022/09/07 19:44:56;;;;;;;;;;;;;;;;;;21087125;28;19924;-61
2022/09/07 19:55:01;;;;;;;;;;;;;;;;;;21087450;28;20011;-61
2022/09/07 20:05:03;;;;;;;;;;;;;;;;;;21086148;28;20345;-61
2022/09/07 20:15:05;;;;;;;;;;;;;;;;;;21084054;28;19931;-62
2022/09/07 20:25:07;;;;;;;;;;;;;;;;;;21083732;28;19966;-62
2022/09/07 20:35:09;;;;;;;;;;;;;;;;;;21075605;28;20445;-62
2022/09/07 20:45:11;;;;;;;;;;;;;;;;;;21084045;28;19963;-61
2022/09/07 20:55:13;;;;;;;;;;;;;;;;;;21082087;28;19924;-61
2022/09/07 21:05:15;;;;;;;;;;;;;;;;;;21083056;28;20011;-63
2022/09/07 21:15:17;;;;;;;;;;;;;;;;;;21082695;28;20295;-61
2022/09/07 21:25:19;;;;;;;;;;;;;;;;;;21080955;28;19928;-62
2022/09/07 21:35:21;;;;;;;;;;;;;;;;;;21080469;28;19931;-62
2022/09/07 21:45:23;;;;;;;;;;;;;;;;;;21080383;28;20291;-60
2022/09/07 21:55:25;;;;;;;;;;;;;;;;;;21079765;28;20347;-62
2022/09/07 22:05:27;;;;;;;;;;;;;;;;;;21084469;28;20269;-61
2022/09/07 22:15:32;;;;;;;;;;;;;;;;;;21094811;28;19969;-62
2022/09/07 22:25:34;;;;;;;;;;;;;;;;;;21095026;28;20015;-61
2022/09/07 22:35:36;;;;;;;;;;;;;;;;;;21094210;28;19971;-61
2022/09/07 22:45:38;;;;;;;;;;;;;;;;;;21093575;28;19977;-62
2022/09/07 22:55:39;;;;;;;;;;;;;;;;;;21093547;28;19924;-63
2022/09/07 23:05:41;;;;;;;;;;;;;;;;;;21091953;28;20354;-62
2022/09/07 23:15:43;;;;;;;;;;;;;;;;;;21090528;28;19924;-62
2022/09/07 23:25:45;;;;;;;;;;;;;;;;;;21091215;28;19924;-62
2022/09/07 23:35:46;;;;;;;;;;;;;;;;;;21089736;28;19924;-62
2022/09/07 23:45:49;;;;;;;;;;;;;;;;;;21089702;28;19999;-62
2022/09/07 23:55:50;;;;;;;;;;;;;;;;;;21087765;28;19924;-61
